Terminal Aerodrome Forecast
Issued by NWS

Home | Current Version | Previous Version | Text Only | Print | Product List | Glossary On
Versions: 1 2 3 4 5 6 7 8 9 10 11 12 13 14 15 16 17 18 19 20 21 22 23 24 25 26 27 28 29 30 31 32 33 34 35 36
347
FTUS45 KGJT 240539
TAFMTJ
TAF
KMTJ 240539Z 2406/2506 30006KT P6SM VCSH BKN025 BKN040 OVC060
     FM240900 27011KT P6SM VCSH BKN040
     FM241300 30008KT P6SM BKN060
     FM241700 32008KT P6SM SCT100
     FM242100 VRB04KT P6SM FEW250=

USA.gov is the U.S. government's official web portal to all federal, state and local government web resources and services.